Time;durP1;ratioP1;P1;durP2;ratioP2;P2;SDS_P1;SDS_P2;PMS_P1;PMS_P2;Temp;Humidity;BMP_temperature;BMP_pressure;BME280_temperature;BME280_humidity;BME280_pressure;Samples;Min_cycle;Max_cycle;Signal;HPM_P1;HPM_P2
2024/02/14 00:02:01;;;;;;;9.27;3.30;;;;;;;-9.82;61.64;100944.19;4768125;29;20078;-68
2024/02/14 00:04:28;;;;;;;8.83;3.97;;;;;;;-9.84;62.50;100956.63;4745331;29;20082;-69
2024/02/14 00:06:54;;;;;;;5.75;3.05;;;;;;;-9.87;61.66;100933.66;4782823;29;20061;-69
2024/02/14 00:09:20;;;;;;;8.38;3.50;;;;;;;-10.02;62.19;100918.03;4794546;29;20137;-68
2024/02/14 00:11:46;;;;;;;9.73;3.90;;;;;;;-9.67;63.02;100964.81;4793609;29;20047;-69
2024/02/14 00:14:12;;;;;;;9.57;4.32;;;;;;;-9.56;62.53;100973.34;4752970;29;20150;-67
2024/02/14 00:16:39;;;;;;;7.95;3.83;;;;;;;-9.73;61.51;100975.25;4781710;29;20112;-70
2024/02/14 00:19:05;;;;;;;11.10;3.80;;;;;;;-9.99;62.22;100935.09;4765255;29;20042;-67
2024/02/14 00:21:31;;;;;;;7.32;3.30;;;;;;;-9.78;62.46;100955.41;4793748;29;20050;-68
2024/02/14 00:23:58;;;;;;;12.48;3.85;;;;;;;-9.70;62.08;100972.09;4791320;29;20421;-68
2024/02/14 00:26:24;;;;;;;11.77;5.05;;;;;;;-9.70;62.29;100972.09;4776959;29;20680;-69
2024/02/14 00:28:50;;;;;;;13.98;4.72;;;;;;;-9.80;63.04;100951.88;4766959;29;20059;-69
2024/02/14 00:31:16;;;;;;;6.95;3.33;;;;;;;-9.90;61.35;100963.63;4789612;29;20046;-67
2024/02/14 00:34:02;;;;;;;8.75;3.78;;;;;;;-9.97;61.65;100958.78;4783042;29;20177;-68
2024/02/14 00:36:29;;;;;;;5.95;2.95;;;;;;;-9.83;61.62;100980.19;4783435;29;20059;-67
2024/02/14 00:38:54;;;;;;;13.73;4.05;;;;;;;-9.82;61.93;100973.50;4784926;29;20055;-69
2024/02/14 00:41:21;;;;;;;7.07;3.97;;;;;;;-10.09;62.47;100909.78;4792263;29;20045;-68
2024/02/14 00:43:47;;;;;;;7.23;3.50;;;;;;;-9.90;61.97;100957.69;4780471;29;20047;-68
2024/02/14 00:46:17;;;;;;;8.57;3.20;;;;;;;-9.93;62.09;100964.97;4769730;29;20715;-67
2024/02/14 00:48:44;;;;;;;6.33;3.20;;;;;;;-10.02;61.83;100965.03;4785212;29;20154;-68
2024/02/14 00:51:11;;;;;;;5.47;3.07;;;;;;;-10.11;62.27;100942.41;4767035;29;20397;-67
2024/02/14 00:53:37;;;;;;;6.97;3.80;;;;;;;-9.99;62.38;100952.72;4769189;29;20043;-68
2024/02/14 00:56:03;;;;;;;7.35;3.15;;;;;;;-9.90;62.04;100960.22;4793499;29;20185;-67
2024/02/14 00:58:29;;;;;;;9.83;3.63;;;;;;;-9.87;62.01;100979.00;4794457;29;20476;-68
2024/02/14 01:00:56;;;;;;;8.18;3.35;;;;;;;-10.06;61.69;100961.34;4798015;29;20734;-67
2024/02/14 01:03:22;;;;;;;7.40;3.50;;;;;;;-9.79;61.72;100987.25;4793284;29;20134;-64
2024/02/14 01:05:48;;;;;;;7.60;3.33;;;;;;;-10.00;60.78;100992.09;4778818;29;20054;-66
2024/02/14 01:08:14;;;;;;;5.57;3.08;;;;;;;-10.16;62.22;100979.75;4779703;29;20050;-66
2024/02/14 01:10:40;;;;;;;5.80;3.40;;;;;;;-9.96;62.65;100989.88;4795044;29;20127;-68
2024/02/14 01:13:07;;;;;;;8.20;3.50;;;;;;;-9.86;61.97;100998.41;4777863;29;20072;-68
2024/02/14 01:15:36;;;;;;;8.77;3.45;;;;;;;-10.06;61.79;100994.09;4781361;29;20085;-64
2024/02/14 01:18:02;;;;;;;6.78;3.20;;;;;;;-10.10;61.36;100991.13;4797050;29;20054;-66
2024/02/14 01:20:31;;;;;;;7.03;3.53;;;;;;;-10.00;62.13;101002.19;4793807;29;20574;-66
2024/02/14 01:22:57;;;;;;;7.43;3.80;;;;;;;-10.03;62.25;100985.91;4767309;29;20043;-67
2024/02/14 01:25:31;;;;;;;9.47;3.67;;;;;;;-9.87;62.31;100990.75;4778965;29;20047;-67
2024/02/14 01:27:57;;;;;;;7.93;3.33;;;;;;;-10.06;61.87;100989.03;4769375;29;20042;-66
2024/02/14 01:30:25;;;;;;;9.75;4.05;;;;;;;-10.17;61.72;100979.59;4778322;29;20077;-67
2024/02/14 01:32:52;;;;;;;8.17;2.93;;;;;;;-10.22;61.08;100995.91;4794091;29;20072;-64
2024/02/14 01:35:19;;;;;;;11.55;5.18;;;;;;;-10.37;61.55;100985.31;4777670;29;20042;-65
2024/02/14 01:37:46;;;;;;;8.45;3.85;;;;;;;-10.10;61.48;101006.22;4795075;29;20047;-64
2024/02/14 01:40:13;;;;;;;10.43;4.03;;;;;;;-10.13;61.63;100996.78;4794369;29;20050;-65
2024/02/14 01:42:55;;;;;;;9.02;3.40;;;;;;;-10.00;61.92;100999.66;4781386;29;20047;-65
2024/02/14 01:45:22;;;;;;;8.20;3.88;;;;;;;-10.05;61.15;101008.44;4793156;29;20051;-66
2024/02/14 01:48:09;;;;;;;6.60;3.07;;;;;;;-10.03;61.69;101018.66;4780674;29;20051;-66
2024/02/14 01:50:40;;;;;;;7.87;3.23;;;;;;;-9.96;61.95;101026.06;4750232;29;20050;-65
2024/02/14 01:53:07;;;;;;;7.03;3.35;;;;;;;-10.06;61.93;101015.84;4767792;29;20075;-64
2024/02/14 01:55:34;;;;;;;7.87;3.43;;;;;;;-10.21;61.01;101023.75;4778885;29;20157;-64
2024/02/14 01:58:03;;;;;;;8.50;3.63;;;;;;;-10.36;61.52;101023.19;4783563;29;20147;-67
2024/02/14 02:00:31;;;;;;;10.37;3.63;;;;;;;-10.31;62.02;101036.22;4793957;29;20047;-66
2024/02/14 02:03:02;;;;;;;7.00;3.13;;;;;;;-10.16;62.44;101037.69;4767563;29;20070;-64
2024/02/14 02:05:28;;;;;;;5.40;2.67;;;;;;;-10.14;60.58;101036.16;4781516;29;20809;-65
2024/02/14 02:07:55;;;;;;;7.03;2.73;;;;;;;-10.22;61.58;101021.97;4767941;29;20762;-65
2024/02/14 02:10:22;;;;;;;8.63;3.60;;;;;;;-10.20;62.20;100999.44;4774175;29;20414;-65
2024/02/14 02:13:09;;;;;;;7.73;3.30;;;;;;;-9.95;61.62;101034.47;4791952;29;20035;-65
2024/02/14 02:15:55;;;;;;;8.00;3.30;;;;;;;-10.16;61.17;101044.31;4792425;29;20081;-65
2024/02/14 02:18:48;;;;;;;12.30;3.80;;;;;;;-10.36;60.14;101044.94;4783216;29;20130;-65
2024/02/14 02:21:37;;;;;;;7.57;4.00;;;;;;;-10.48;61.27;101044.75;4771607;29;20587;-66
2024/02/14 02:24:03;;;;;;;6.57;3.57;;;;;;;-10.45;61.16;101050.03;4751370;29;20043;-63
2024/02/14 02:26:31;;;;;;;6.73;3.23;;;;;;;-10.52;60.92;101048.56;4776852;29;20745;-66
2024/02/14 02:29:19;;;;;;;8.03;3.40;;;;;;;-10.49;60.67;101055.53;4791112;29;20089;-64
2024/02/14 02:31:46;;;;;;;9.60;3.50;;;;;;;-10.44;61.13;101054.34;4792980;29;20155;-64
2024/02/14 02:34:13;;;;;;;9.00;3.37;;;;;;;-10.50;61.31;101058.81;4782220;29;20506;-66
2024/02/14 02:36:43;;;;;;;8.33;3.63;;;;;;;-10.56;60.42;101061.59;4766945;29;20126;-70
2024/02/14 02:39:28;;;;;;;7.27;3.73;;;;;;;-10.77;61.34;101017.69;4784150;29;20046;-70
2024/02/14 02:42:14;;;;;;;6.28;3.05;;;;;;;-10.54;61.02;101061.75;4784903;29;20071;-68
2024/02/14 02:45:02;;;;;;;6.80;3.53;;;;;;;-10.45;61.69;101060.09;4794683;29;20422;-70
2024/02/14 02:47:51;;;;;;;10.80;3.77;;;;;;;-10.31;61.41;101063.91;4794990;29;20070;-68
2024/02/14 02:50:37;;;;;;;5.87;3.60;;;;;;;-10.42;60.63;101049.47;4759702;29;20100;-70
2024/02/14 02:53:23;;;;;;;7.47;3.87;;;;;;;-10.63;61.67;101042.53;4794846;29;20501;-68
2024/02/14 02:56:09;;;;;;;6.23;3.60;;;;;;;-10.46;61.41;101039.09;4784223;29;20132;-69
2024/02/14 02:58:37;;;;;;;7.00;3.20;;;;;;;-10.47;60.85;101049.00;4765631;29;20074;-68
2024/02/14 03:01:08;;;;;;;6.83;3.27;;;;;;;-10.60;59.84;101052.88;4782935;29;20506;-70
2024/02/14 03:03:53;;;;;;;8.27;3.53;;;;;;;-10.65;61.13;101084.25;4782837;29;20050;-68
2024/02/14 03:06:39;;;;;;;8.97;3.97;;;;;;;-10.64;61.31;101075.09;4793642;29;20046;-67
2024/02/14 03:09:27;;;;;;;7.20;3.60;;;;;;;-10.72;60.89;101063.41;4783313;29;20103;-69
2024/02/14 03:12:16;;;;;;;7.97;3.43;;;;;;;-10.79;61.33;101040.16;4784527;29;20043;-68
2024/02/14 03:15:04;;;;;;;7.90;3.77;;;;;;;-10.51;61.53;101070.47;4782692;29;20047;-66
2024/02/14 03:17:33;;;;;;;12.90;4.70;;;;;;;-10.45;60.54;101082.75;4761827;29;20138;-66
2024/02/14 03:19:59;;;;;;;12.37;4.43;;;;;;;-10.40;61.56;101091.66;4792040;29;20050;-69
2024/02/14 03:22:25;;;;;;;17.00;5.57;;;;;;;-10.63;61.09;101062.66;4767311;29;20221;-69
2024/02/14 03:24:51;;;;;;;18.23;6.77;;;;;;;-10.32;60.74;101093.25;4782648;29;20105;-68
2024/02/14 03:27:18;;;;;;;18.70;6.27;;;;;;;-10.39;60.86;101082.47;4780549;29;20150;-68
2024/02/14 03:29:45;;;;;;;9.53;4.40;;;;;;;-10.31;61.27;101081.53;4762279;29;21395;-68
2024/02/14 03:32:11;;;;;;;11.67;4.30;;;;;;;-10.24;61.21;101090.53;4753610;29;20439;-69
2024/02/14 03:34:37;;;;;;;7.00;3.13;;;;;;;-10.29;60.59;101086.00;4793599;29;20051;-69
2024/02/14 03:37:04;;;;;;;11.20;5.03;;;;;;;-10.43;60.97;101063.66;4782248;29;20054;-68
2024/02/14 03:39:30;;;;;;;9.20;4.47;;;;;;;-10.36;60.75;101081.09;4749761;29;20058;-66
2024/02/14 03:41:57;;;;;;;10.17;4.33;;;;;;;-10.34;61.34;101067.03;4792266;29;20078;-68
2024/02/14 03:44:23;;;;;;;13.60;6.07;;;;;;;-10.16;60.82;101098.13;4793744;29;20062;-68
2024/02/14 03:46:50;;;;;;;12.17;5.97;;;;;;;-10.26;61.19;101104.66;4797243;29;20067;-68
2024/02/14 03:49:16;;;;;;;16.30;6.07;;;;;;;-10.49;60.61;101085.75;4781741;29;20089;-69
2024/02/14 03:51:44;;;;;;;14.10;5.90;;;;;;;-10.46;60.59;101107.06;4794947;29;20459;-68
2024/02/14 03:54:11;;;;;;;17.57;5.60;;;;;;;-10.57;59.77;101102.59;4779330;29;20051;-68
2024/02/14 03:56:37;;;;;;;15.80;6.37;;;;;;;-10.68;59.97;101114.16;4766795;29;20054;-68
2024/02/14 03:59:05;;;;;;;19.40;7.10;;;;;;;-10.71;60.52;101100.41;4780734;29;20043;-69
2024/02/14 04:01:32;;;;;;;13.77;5.40;;;;;;;-10.75;59.75;101112.66;4793926;29;20111;-68
2024/02/14 04:03:59;;;;;;;9.90;4.80;;;;;;;-10.95;60.69;101107.31;4797323;29;20054;-68
2024/02/14 04:06:26;;;;;;;13.40;4.47;;;;;;;-10.78;61.23;101099.78;4791108;29;20073;-67
2024/02/14 04:08:53;;;;;;;13.07;4.90;;;;;;;-10.56;60.91;101116.09;4784285;29;20599;-68
2024/02/14 04:11:19;;;;;;;9.73;4.60;;;;;;;-10.66;60.83;101076.56;4799131;29;20073;-69
2024/02/14 04:13:45;;;;;;;19.57;6.33;;;;;;;-10.38;60.41;101111.94;4785169;29;20504;-69
2024/02/14 04:16:12;;;;;;;21.37;9.63;;;;;;;-10.42;59.57;101107.34;4788570;29;20414;-70
2024/02/14 04:18:57;;;;;;;16.90;7.23;;;;;;;-10.65;60.85;101091.81;4785648;29;20066;-67
2024/02/14 04:21:23;;;;;;;14.50;5.90;;;;;;;-10.54;60.58;101102.03;4787365;29;20051;-69
2024/02/14 04:23:49;;;;;;;12.10;5.93;;;;;;;-10.55;60.86;101106.16;4772986;29;20057;-69
2024/02/14 04:26:20;;;;;;;12.40;5.93;;;;;;;-10.39;60.13;101122.75;4782410;29;20047;-69
2024/02/14 04:28:46;;;;;;;24.55;7.40;;;;;;;-10.64;59.68;101108.69;4785983;29;20051;-68
2024/02/14 04:31:12;;;;;;;10.23;4.30;;;;;;;-10.54;60.28;101129.72;4800487;29;20088;-68
2024/02/14 04:33:53;;;;;;;11.57;4.00;;;;;;;-10.76;59.38;101135.19;4774888;29;20042;-68
2024/02/14 04:36:25;;;;;;;10.43;5.40;;;;;;;-10.79;59.92;101134.88;4786590;29;20042;-69
2024/02/14 04:38:53;;;;;;;9.57;4.27;;;;;;;-10.69;60.01;101129.13;4771910;29;20104;-67
2024/02/14 04:41:22;;;;;;;11.60;4.53;;;;;;;-10.55;60.67;101141.38;4799950;29;20078;-68
2024/02/14 04:43:49;;;;;;;14.43;4.87;;;;;;;-10.61;60.03;101116.53;4786728;29;20047;-67
2024/02/14 04:46:15;;;;;;;9.63;3.33;;;;;;;-10.78;59.50;101140.03;4785269;29;20054;-67
2024/02/14 04:48:42;;;;;;;13.33;5.40;;;;;;;-10.77;60.35;101145.97;4780471;29;20059;-67
2024/02/14 04:51:09;;;;;;;10.70;4.40;;;;;;;-11.17;58.63;101122.81;4756443;29;20039;-68
2024/02/14 04:53:35;;;;;;;10.23;4.60;;;;;;;-11.51;59.62;101102.75;4786329;29;20192;-68
2024/02/14 04:56:01;;;;;;;7.50;3.03;;;;;;;-11.11;60.08;101161.16;4771149;29;20047;-70
2024/02/14 04:58:27;;;;;;;9.93;4.37;;;;;;;-11.39;60.28;101099.72;4753377;29;20051;-68
2024/02/14 05:00:54;;;;;;;8.13;4.00;;;;;;;-10.85;60.87;101152.78;4782574;29;20043;-67
2024/02/14 05:03:23;;;;;;;11.13;4.10;;;;;;;-11.05;59.02;101133.19;4796630;29;20042;-68
2024/02/14 05:05:50;;;;;;;8.00;3.57;;;;;;;-11.13;59.22;101154.16;4781078;29;20046;-68
2024/02/14 05:08:17;;;;;;;10.60;3.77;;;;;;;-11.07;59.97;101153.19;4767024;29;20047;-68
2024/02/14 05:10:43;;;;;;;10.80;4.23;;;;;;;-10.90;59.91;101166.53;4785873;29;20158;-69
2024/02/14 05:13:09;;;;;;;8.97;3.77;;;;;;;-10.82;59.29;101179.84;4783372;29;20050;-68
2024/02/14 05:15:35;;;;;;;7.63;3.77;;;;;;;-10.85;60.22;101151.88;4797689;29;20392;-68
2024/02/14 05:18:01;;;;;;;9.23;3.97;;;;;;;-10.56;59.06;101173.97;4771538;29;20053;-68
2024/02/14 05:20:28;;;;;;;11.53;4.07;;;;;;;-10.43;59.04;101164.34;4783263;29;20136;-67
2024/02/14 05:22:54;;;;;;;9.67;4.67;;;;;;;-10.11;60.18;101176.59;4783843;29;20038;-68
2024/02/14 05:25:20;;;;;;;9.43;5.15;;;;;;;-9.73;60.70;101181.88;4780988;29;20064;-72
2024/02/14 05:27:59;;;;;;;11.68;5.50;;;;;;;-9.40;59.28;101178.22;4795551;29;20104;-69
2024/02/14 05:30:26;;;;;;;12.70;4.53;;;;;;;-9.32;60.16;101161.28;4780988;29;21536;-69
2024/02/14 05:33:09;;;;;;;7.45;3.85;;;;;;;-9.33;58.33;101161.13;4784112;29;20088;-66
2024/02/14 05:35:35;;;;;;;9.05;3.75;;;;;;;-9.40;58.98;101162.19;4799068;29;20047;-66
2024/02/14 05:38:01;;;;;;;13.30;4.80;;;;;;;-9.51;57.87;101181.38;4769322;29;20039;-65
2024/02/14 05:40:27;;;;;;;13.85;5.45;;;;;;;-9.66;58.33;101179.94;4785303;29;20054;-64
2024/02/14 05:42:53;;;;;;;14.20;5.00;;;;;;;-9.52;59.26;101181.25;4788405;29;20039;-65
2024/02/14 05:45:21;;;;;;;7.72;4.15;;;;;;;-9.59;57.13;101194.88;4758686;29;20139;-65
2024/02/14 05:47:47;;;;;;;10.68;4.47;;;;;;;-9.65;58.38;101180.06;4776843;29;20082;-66
2024/02/14 05:50:14;;;;;;;12.55;4.85;;;;;;;-9.26;58.85;101197.13;4766374;29;20053;-67
2024/02/14 05:52:40;;;;;;;10.25;4.05;;;;;;;-9.32;58.30;101163.81;4768232;29;20039;-65
2024/02/14 05:55:07;;;;;;;12.35;5.47;;;;;;;-8.83;58.49;101195.16;4792740;29;20057;-68
2024/02/14 05:57:48;;;;;;;10.13;5.55;;;;;;;-8.45;59.05;101189.25;4770552;29;20051;-67
2024/02/14 06:00:14;;;;;;;7.18;3.58;;;;;;;-8.48;56.97;101205.00;4780154;29;20050;-70
2024/02/14 06:02:40;;;;;;;10.63;4.82;;;;;;;-8.54;57.63;101196.03;4784776;29;20529;-68
2024/02/14 06:05:09;;;;;;;11.05;4.80;;;;;;;-8.40;56.56;101195.59;4770733;29;21926;-67
2024/02/14 06:07:36;;;;;;;8.75;3.60;;;;;;;-8.38;56.71;101190.69;4781155;29;20050;-72
2024/02/14 06:10:03;;;;;;;10.82;4.32;;;;;;;-7.92;57.73;101183.72;4799022;29;20043;-71
2024/02/14 06:12:33;;;;;;;12.13;4.60;;;;;;;-8.13;56.93;101132.22;4772987;29;20053;-67
2024/02/14 06:14:59;;;;;;;8.70;4.10;;;;;;;-7.17;57.19;101213.75;4797680;29;20046;-68
2024/02/14 06:17:28;;;;;;;10.55;4.35;;;;;;;-7.37;55.60;101215.44;4783677;29;20054;-69
2024/02/14 06:19:54;;;;;;;10.52;4.38;;;;;;;-7.33;56.08;101194.72;4798111;29;20138;-68
2024/02/14 06:22:21;;;;;;;8.52;3.90;;;;;;;-6.90;56.14;101225.31;4786150;29;20046;-67
2024/02/14 06:24:50;;;;;;;8.77;4.30;;;;;;;-6.86;55.26;101203.66;4797583;29;20108;-68
2024/02/14 06:27:17;;;;;;;6.70;2.72;;;;;;;-6.71;54.60;101179.59;4785215;29;21941;-67
2024/02/14 06:29:43;;;;;;;8.25;4.68;;;;;;;-6.41;54.65;101210.75;4770577;29;20120;-68
2024/02/14 06:32:12;;;;;;;10.15;4.55;;;;;;;-6.57;53.92;101195.94;4784860;29;20050;-68
2024/02/14 06:34:38;;;;;;;10.40;5.15;;;;;;;-6.57;54.40;101217.88;4766144;29;20104;-68
2024/02/14 06:37:04;;;;;;;11.80;4.88;;;;;;;-6.41;54.74;101208.22;4777649;29;20212;-68
2024/02/14 06:39:30;;;;;;;9.82;4.70;;;;;;;-5.81;55.58;101227.34;4778661;29;20057;-67
2024/02/14 06:41:59;;;;;;;12.90;5.38;;;;;;;-5.41;54.83;101224.53;4792037;29;20050;-69
2024/02/14 06:44:26;;;;;;;9.57;4.93;;;;;;;-5.42;53.31;101219.38;4748414;29;20050;-69
2024/02/14 06:46:52;;;;;;;11.82;4.75;;;;;;;-5.67;52.79;101218.31;4781272;29;20050;-68
2024/02/14 06:49:18;;;;;;;8.07;3.80;;;;;;;-5.51;53.87;101191.59;4796149;29;20095;-68
2024/02/14 06:51:45;;;;;;;9.25;5.03;;;;;;;-5.09;54.20;101144.03;4772620;29;20069;-69
2024/02/14 06:54:12;;;;;;;13.95;6.28;;;;;;;-4.96;50.86;101212.72;4781952;29;20410;-66
2024/02/14 06:56:38;;;;;;;20.40;8.95;;;;;;;-5.05;52.19;101204.44;4790200;29;20074;-70
2024/02/14 06:59:04;;;;;;;10.50;4.85;;;;;;;-5.17;50.96;101220.47;4778036;29;20515;-70
2024/02/14 07:01:31;;;;;;;9.32;4.53;;;;;;;-5.08;50.93;101214.34;4779168;29;20057;-70
2024/02/14 07:03:58;;;;;;;14.52;5.20;;;;;;;-5.03;51.01;101206.31;4767146;29;20058;-72
2024/02/14 07:06:24;;;;;;;16.85;5.80;;;;;;;-4.27;51.72;101214.47;4798447;29;20097;-70
2024/02/14 07:08:50;;;;;;;9.13;5.03;;;;;;;-3.44;52.20;101212.69;4778614;29;20074;-67
2024/02/14 07:11:17;;;;;;;12.18;4.80;;;;;;;-3.20;50.37;101193.19;4792876;29;20050;-66
2024/02/14 07:13:43;;;;;;;9.77;4.72;;;;;;;-2.79;50.22;101210.41;4792089;29;20043;-69
2024/02/14 07:16:09;;;;;;;10.95;5.60;;;;;;;-2.70;49.12;101207.59;4776871;29;20046;-67
2024/02/14 07:18:35;;;;;;;10.50;5.00;;;;;;;-2.57;49.14;101184.66;4761511;29;20082;-68
2024/02/14 07:21:02;;;;;;;13.35;5.60;;;;;;;-1.81;49.90;101204.00;4793178;29;20053;-69
2024/02/14 07:23:28;;;;;;;12.32;5.78;;;;;;;-1.11;49.74;101213.38;4779922;29;20093;-70
2024/02/14 07:25:54;;;;;;;10.20;5.28;;;;;;;-1.55;46.70;101197.97;4787795;29;20383;-69
2024/02/14 07:28:20;;;;;;;9.52;4.57;;;;;;;-1.38;47.87;101193.91;4777734;29;20514;-71
2024/02/14 07:30:46;;;;;;;8.30;3.97;;;;;;;-0.73;46.57;101185.81;4790923;29;20055;-69
2024/02/14 07:33:12;;;;;;;8.98;4.68;;;;;;;-0.64;46.90;101123.31;4779555;29;20046;-70
2024/02/14 07:35:38;;;;;;;9.48;4.68;;;;;;;-0.43;44.54;101194.41;4758726;29;20069;-69
2024/02/14 07:38:04;;;;;;;10.68;5.25;;;;;;;-0.42;46.73;101183.38;4775416;29;20628;-69
2024/02/14 07:40:33;;;;;;;11.63;5.57;;;;;;;0.03;45.28;101195.28;4790990;29;20043;-69
2024/02/14 07:43:19;;;;;;;8.32;5.38;;;;;;;-0.19;43.74;101188.94;4776664;29;20047;-69
2024/02/14 07:45:45;;;;;;;9.13;5.47;;;;;;;-0.18;44.60;101178.78;4763057;29;20108;-70
2024/02/14 07:48:11;;;;;;;10.55;4.72;;;;;;;-0.07;45.58;101201.53;4751672;29;20423;-69
2024/02/14 07:50:37;;;;;;;9.93;6.38;;;;;;;-0.80;42.65;101189.69;4757919;29;20446;-70
2024/02/14 07:53:03;;;;;;;7.90;5.15;;;;;;;-1.67;42.29;101202.31;4773513;29;20035;-69
2024/02/14 07:55:29;;;;;;;8.65;4.28;;;;;;;-2.17;42.28;101199.16;4748755;29;20507;-71
2024/02/14 07:57:55;;;;;;;8.63;4.25;;;;;;;-2.24;43.55;101189.34;4758544;29;20051;-66
2024/02/14 08:00:24;;;;;;;11.65;6.75;;;;;;;-1.61;44.95;101215.44;4761424;29;20109;-67
2024/02/14 08:02:51;;;;;;;10.68;5.40;;;;;;;-1.43;43.86;101185.09;4772783;29;20050;-67
2024/02/14 08:05:17;;;;;;;8.25;4.97;;;;;;;-1.38;43.96;101216.00;4772519;29;20055;-68
2024/02/14 08:07:47;;;;;;;12.90;5.03;;;;;;;-1.86;41.78;101216.44;4743125;29;20074;-71
2024/02/14 08:10:13;;;;;;;14.70;6.07;;;;;;;-2.19;43.80;101208.38;4740357;29;20146;-69
2024/02/14 08:12:39;;;;;;;13.90;6.20;;;;;;;-2.26;43.00;101203.66;4758073;29;20078;-67
2024/02/14 08:15:06;;;;;;;12.07;6.10;;;;;;;-1.91;43.35;101191.41;4758657;29;20137;-66
2024/02/14 08:17:35;;;;;;;14.45;6.38;;;;;;;-1.99;42.73;101216.44;4774183;29;20050;-68
2024/02/14 08:20:03;;;;;;;17.00;7.57;;;;;;;-1.98;44.14;101208.00;4773031;29;20466;-69
2024/02/14 08:22:37;;;;;;;11.00;5.10;;;;;;;-1.53;42.64;101231.25;4758397;29;20044;-67
2024/02/14 08:25:04;;;;;;;11.73;5.35;;;;;;;-2.49;41.96;101169.88;4762162;29;20054;-69
2024/02/14 08:27:31;;;;;;;10.57;5.10;;;;;;;-1.80;44.18;101220.16;4774507;29;20228;-65
2024/02/14 08:29:57;;;;;;;9.85;5.97;;;;;;;-1.39;44.18;101230.47;4773897;29;20107;-66
2024/02/14 08:32:23;;;;;;;11.40;5.97;;;;;;;-1.63;41.78;101240.00;4757538;29;20051;-66
2024/02/14 08:34:52;;;;;;;12.63;5.63;;;;;;;-2.17;41.42;101237.44;4773397;29;20055;-67
2024/02/14 08:37:18;;;;;;;15.23;6.63;;;;;;;-2.14;43.25;101204.47;4776561;29;20507;-66
2024/02/14 08:39:44;;;;;;;11.77;5.70;;;;;;;-2.06;42.66;101196.41;4762854;29;20050;-69
2024/02/14 08:42:10;;;;;;;14.38;5.80;;;;;;;-1.81;42.84;101242.28;4772752;29;20070;-70
2024/02/14 08:44:37;;;;;;;13.60;5.50;;;;;;;-2.66;40.78;101221.41;4773412;29;20400;-69
2024/02/14 08:47:04;;;;;;;18.55;7.45;;;;;;;-3.01;42.54;101232.66;4763041;29;20043;-68
2024/02/14 08:49:30;;;;;;;12.05;5.53;;;;;;;-3.28;42.25;101242.69;4777723;29;20506;-68
2024/02/14 08:51:56;;;;;;;12.32;6.32;;;;;;;-3.81;42.83;101223.69;4791956;29;20554;-68
2024/02/14 08:54:23;;;;;;;17.58;8.38;;;;;;;-3.66;43.81;101211.19;4792202;29;20050;-69
2024/02/14 08:56:49;;;;;;;10.00;5.22;;;;;;;-3.76;43.12;101208.78;4793408;29;20046;-67
2024/02/14 08:59:15;;;;;;;15.80;6.60;;;;;;;-3.73;43.43;101191.16;4793667;29;20104;-66
2024/02/14 09:01:41;;;;;;;10.27;5.53;;;;;;;-3.09;44.31;101242.31;4779747;29;20111;-68
2024/02/14 09:04:07;;;;;;;12.82;5.60;;;;;;;-3.16;43.38;101246.06;4794232;29;20498;-68
2024/02/14 09:06:34;;;;;;;11.55;5.93;;;;;;;-3.13;43.68;101232.69;4790560;29;20051;-68
2024/02/14 09:09:00;;;;;;;10.02;4.75;;;;;;;-3.16;43.11;101253.69;4780863;29;20047;-66
2024/02/14 09:11:26;;;;;;;8.57;4.68;;;;;;;-3.05;43.12;101250.25;4748873;29;20430;-68
2024/02/14 09:13:55;;;;;;;10.93;4.88;;;;;;;-3.05;42.91;101257.91;4770793;29;20035;-67
2024/02/14 09:16:23;;;;;;;8.98;4.00;;;;;;;-3.38;43.51;101261.50;4793298;29;20046;-68
2024/02/14 09:18:50;;;;;;;12.32;5.07;;;;;;;-3.56;43.30;101256.88;4768994;29;20043;-68
2024/02/14 09:21:16;;;;;;;9.90;4.75;;;;;;;-3.89;43.15;101245.16;4785831;29;20049;-67
2024/02/14 09:23:45;;;;;;;10.75;5.00;;;;;;;-4.19;43.90;101247.22;4783218;29;20530;-68
2024/02/14 09:26:11;;;;;;;12.63;5.53;;;;;;;-4.41;43.75;101228.72;4797269;29;20038;-74
2024/02/14 09:28:40;;;;;;;11.05;5.85;;;;;;;-4.36;44.47;101244.31;4769539;29;20203;-68
2024/02/14 09:31:09;;;;;;;8.65;4.40;;;;;;;-4.29;43.99;101253.28;4795792;29;20129;-67
2024/02/14 09:33:36;;;;;;;10.82;4.95;;;;;;;-4.52;44.37;101243.97;4794823;29;20043;-67
2024/02/14 09:36:04;;;;;;;11.40;4.47;;;;;;;-4.43;44.49;101262.41;4768998;29;20567;-71
2024/02/14 09:38:31;;;;;;;8.57;4.10;;;;;;;-4.56;43.76;101256.44;4753405;29;20055;-68
2024/02/14 09:41:22;;;;;;;11.75;4.90;;;;;;;-4.77;45.38;101231.94;4764837;29;20167;-69
2024/02/14 09:43:48;;;;;;;12.68;5.93;;;;;;;-4.44;45.28;101247.94;4774674;29;20426;-67
2024/02/14 09:46:14;;;;;;;11.27;5.85;;;;;;;-4.73;44.57;101231.38;4766335;29;20499;-69
2024/02/14 09:48:44;;;;;;;13.25;5.00;;;;;;;-5.04;44.85;101227.38;4780100;29;20144;-69
2024/02/14 09:51:12;;;;;;;10.15;5.05;;;;;;;-5.45;45.08;101187.00;4783174;29;20043;-67
2024/02/14 09:53:41;;;;;;;8.07;4.80;;;;;;;-5.07;45.61;101259.28;4795628;29;20047;-68
2024/02/14 09:56:10;;;;;;;11.25;5.07;;;;;;;-4.98;45.69;101262.53;4796959;29;20134;-68
2024/02/14 09:58:36;;;;;;;10.70;5.00;;;;;;;-4.70;45.62;101257.91;4769700;29;20039;-66
2024/02/14 10:01:03;;;;;;;11.55;4.65;;;;;;;-4.78;46.37;101246.28;4795981;29;20047;-69
2024/02/14 10:03:29;;;;;;;10.93;4.95;;;;;;;-4.38;46.40;101269.59;4783769;29;20526;-67
2024/02/14 10:05:56;;;;;;;14.43;4.57;;;;;;;-4.47;45.96;101260.41;4768773;29;20518;-67
2024/02/14 10:08:23;;;;;;;9.57;4.50;;;;;;;-4.42;45.83;101261.66;4767092;29;20097;-67
2024/02/14 10:10:50;;;;;;;10.27;4.40;;;;;;;-4.70;45.80;101257.91;4768095;29;20263;-66
2024/02/14 10:13:16;;;;;;;11.20;4.68;;;;;;;-4.81;46.01;101243.50;4793121;29;20154;-66
2024/02/14 10:15:42;;;;;;;9.38;4.70;;;;;;;-5.09;46.04;101194.81;4752178;29;20070;-67
2024/02/14 10:18:09;;;;;;;8.80;3.75;;;;;;;-5.14;46.34;101215.63;4767727;29;20104;-66
2024/02/14 10:20:40;;;;;;;9.35;4.78;;;;;;;-4.88;46.37;101265.00;4789534;29;20134;-66
2024/02/14 10:23:12;;;;;;;11.55;4.68;;;;;;;-4.89;46.45;101268.31;4783828;29;20038;-66
2024/02/14 10:25:38;;;;;;;8.45;4.45;;;;;;;-5.16;45.97;101250.16;4779010;29;20062;-67
2024/02/14 10:28:08;;;;;;;8.18;4.40;;;;;;;-5.19;46.60;101252.50;4781365;29;20054;-65
2024/02/14 10:30:37;;;;;;;8.13;4.28;;;;;;;-5.15;47.16;101277.34;4782176;29;20072;-66
2024/02/14 10:33:04;;;;;;;7.30;3.97;;;;;;;-5.36;47.11;101243.56;4767665;29;20058;-68
2024/02/14 10:35:31;;;;;;;14.00;6.45;;;;;;;-5.01;48.35;101236.91;4764852;29;20050;-66
2024/02/14 10:38:01;;;;;;;17.17;7.32;;;;;;;-4.76;47.34;101228.63;4793879;29;20607;-67
2024/02/14 10:40:28;;;;;;;14.23;6.20;;;;;;;-4.67;47.79;101254.72;4796800;29;20046;-67
2024/02/14 10:42:58;;;;;;;18.67;7.05;;;;;;;-4.85;46.91;101249.09;4793116;29;20134;-64
2024/02/14 10:45:27;;;;;;;12.25;5.70;;;;;;;-4.88;47.76;101233.66;4782062;29;20070;-67
2024/02/14 10:47:57;;;;;;;11.00;5.97;;;;;;;-4.89;47.00;101212.44;4767127;29;20501;-66
2024/02/14 10:50:24;;;;;;;13.07;5.47;;;;;;;-4.83;47.33;101234.88;4780370;29;20519;-65
2024/02/14 10:52:56;;;;;;;9.13;4.70;;;;;;;-4.95;47.31;101237.34;4781791;29;20035;-67
2024/02/14 10:55:26;;;;;;;9.85;4.43;;;;;;;-4.91;47.31;101249.53;4777062;29;20046;-66
2024/02/14 10:57:54;;;;;;;7.72;3.83;;;;;;;-5.04;47.38;101257.84;4776551;29;20084;-65
2024/02/14 11:00:20;;;;;;;12.25;4.75;;;;;;;-5.07;48.54;101259.28;4779881;29;20546;-68
2024/02/14 11:02:49;;;;;;;8.65;4.15;;;;;;;-5.18;47.66;101246.63;4781853;29;20134;-65
2024/02/14 11:05:23;;;;;;;11.15;4.93;;;;;;;-5.06;47.93;101267.00;4787073;29;20047;-65
2024/02/14 11:07:53;;;;;;;8.95;4.18;;;;;;;-5.38;47.38;101246.72;4766503;29;20515;-68
2024/02/14 11:10:21;;;;;;;13.85;5.60;;;;;;;-5.27;48.91;101263.69;4765418;29;20120;-65
2024/02/14 11:12:49;;;;;;;14.07;6.07;;;;;;;-4.97;48.54;101264.31;4780496;29;20039;-65
2024/02/14 11:15:21;;;;;;;10.90;5.13;;;;;;;-4.90;49.06;101258.06;4776662;29;20047;-67
2024/02/14 11:17:57;;;;;;;9.20;4.00;;;;;;;-4.66;48.39;101260.69;4791816;29;21576;-66
2024/02/14 11:20:33;;;;;;;9.13;3.92;;;;;;;-5.01;47.41;101262.31;4780062;29;20104;-66
2024/02/14 11:23:06;;;;;;;9.07;4.57;;;;;;;-5.31;48.64;101237.19;4791415;29;20447;-66
2024/02/14 11:25:34;;;;;;;10.55;4.53;;;;;;;-4.99;49.14;101260.78;4786786;29;20141;-67
2024/02/14 11:28:12;;;;;;;9.30;4.90;;;;;;;-4.89;49.35;101242.91;4765591;29;20057;-66